Time;durP1;ratioP1;P1;durP2;ratioP2;P2;SDS_P1;SDS_P2;PMS_P1;PMS_P2;Temp;Humidity;BMP_temperature;BMP_pressure;BME280_temperature;BME280_humidity;BME280_pressure;Samples;Min_cycle;Max_cycle;Signal;HPM_P1;HPM_P2
2021/12/09 00:01:21;;;;;;;60.45;24.13;;;5.00;85.10;;;;;;5027633;28;20231;-69
2021/12/09 00:03:53;;;;;;;76.72;27.42;;;5.00;85.10;;;;;;5024734;28;20217;-73
2021/12/09 00:06:26;;;;;;;69.25;27.75;;;4.90;85.10;;;;;;5019651;28;20212;-70
2021/12/09 00:08:55;;;;;;;76.47;29.25;;;4.90;85.20;;;;;;5024747;28;20694;-72
2021/12/09 00:11:23;;;;;;;77.65;28.13;;;4.90;85.20;;;;;;5025600;28;20209;-71
2021/12/09 00:13:51;;;;;;;59.63;25.00;;;4.90;85.20;;;;;;5025496;28;20654;-70
2021/12/09 00:16:19;;;;;;;69.35;28.20;;;4.90;85.10;;;;;;5027739;28;20317;-69
2021/12/09 00:18:47;;;;;;;66.50;29.77;;;4.90;85.20;;;;;;5017988;28;20220;-71
2021/12/09 00:21:16;;;;;;;67.95;28.10;;;5.00;85.20;;;;;;5027183;28;20636;-70
2021/12/09 00:23:45;;;;;;;70.88;28.35;;;4.90;85.20;;;;;;5019818;28;20197;-70
2021/12/09 00:26:13;;;;;;;70.68;26.20;;;5.00;85.20;;;;;;5024489;28;20197;-72
2021/12/09 00:28:41;;;;;;;67.60;28.20;;;5.00;85.20;;;;;;5023575;28;20887;-72
2021/12/09 00:31:09;;;;;;;65.05;25.00;;;5.00;85.10;;;;;;5018264;28;20980;-72
2021/12/09 00:33:42;;;;;;;72.60;27.90;;;5.00;85.10;;;;;;5023792;28;20212;-70
2021/12/09 00:36:12;;;;;;;73.72;28.55;;;4.90;85.00;;;;;;5023572;28;20217;-70
2021/12/09 00:38:41;;;;;;;63.35;26.48;;;4.90;85.10;;;;;;5026578;28;20725;-69
2021/12/09 00:41:14;;;;;;;87.40;29.50;;;4.90;85.20;;;;;;5026063;28;20217;-71
2021/12/09 00:43:43;;;;;;;92.97;30.90;;;4.90;85.20;;;;;;5023639;28;20209;-73
2021/12/09 00:46:11;;;;;;;78.60;30.15;;;4.90;85.20;;;;;;5016529;28;20675;-72
2021/12/09 00:48:39;;;;;;;76.30;29.50;;;4.90;85.20;;;;;;5025592;28;20279;-73
2021/12/09 00:51:09;;;;;;;85.00;30.05;;;4.90;85.20;;;;;;5022264;28;20284;-71
2021/12/09 00:53:38;;;;;;;82.68;31.02;;;4.90;85.30;;;;;;5023263;28;20212;-72
2021/12/09 00:56:08;;;;;;;77.05;27.73;;;4.90;85.20;;;;;;5024176;28;20809;-72
2021/12/09 00:58:38;;;;;;;71.40;27.33;;;4.90;85.20;;;;;;5021082;28;20231;-71
2021/12/09 01:01:08;;;;;;;63.58;25.63;;;4.90;85.20;;;;;;5021753;28;20236;-71
2021/12/09 01:03:38;;;;;;;76.10;27.83;;;4.90;85.20;;;;;;5015988;28;20228;-72
2021/12/09 01:06:07;;;;;;;85.18;29.02;;;4.90;85.20;;;;;;5029764;28;20280;-71
2021/12/09 01:08:43;;;;;;;81.05;29.35;;;4.90;85.20;;;;;;5030204;28;20227;-72
2021/12/09 01:11:14;;;;;;;71.90;27.50;;;4.90;85.30;;;;;;5042477;28;20235;-73
2021/12/09 01:13:44;;;;;;;73.50;26.30;;;4.90;85.30;;;;;;5024850;28;20212;-72
2021/12/09 01:16:13;;;;;;;92.45;31.02;;;4.90;85.20;;;;;;5028406;28;20721;-72
2021/12/09 01:18:42;;;;;;;67.15;26.52;;;4.90;85.10;;;;;;5029649;28;20225;-71
2021/12/09 01:21:10;;;;;;;76.65;26.58;;;4.90;85.10;;;;;;5026654;28;20217;-72
2021/12/09 01:23:40;;;;;;;64.00;23.92;;;4.90;85.20;;;;;;5027875;28;20201;-71
2021/12/09 01:26:08;;;;;;;51.40;23.88;;;4.90;85.20;;;;;;5026834;28;20285;-71
2021/12/09 01:28:44;;;;;;;64.75;25.65;;;4.90;85.30;;;;;;5024189;28;20682;-72
2021/12/09 01:31:21;;;;;;;58.83;22.80;;;4.90;85.20;;;;;;5025419;28;20239;-72
2021/12/09 01:33:51;;;;;;;70.47;25.17;;;4.90;85.30;;;;;;5028163;28;20619;-72
2021/12/09 01:36:19;;;;;;;61.80;23.75;;;4.90;85.30;;;;;;5029473;28;20216;-72
2021/12/09 01:38:47;;;;;;;84.10;27.60;;;4.90;85.30;;;;;;5024358;28;20812;-73
2021/12/09 01:41:15;;;;;;;54.83;21.77;;;4.90;85.30;;;;;;5024641;28;20218;-72
2021/12/09 01:43:43;;;;;;;57.30;22.90;;;4.90;85.30;;;;;;5025759;28;20575;-71
2021/12/09 01:46:15;;;;;;;67.88;24.25;;;4.90;85.20;;;;;;5029383;28;20232;-72
2021/12/09 01:48:45;;;;;;;74.00;24.90;;;4.90;85.20;;;;;;5026481;28;20220;-72
2021/12/09 01:51:14;;;;;;;73.28;25.90;;;4.90;85.30;;;;;;5028459;28;20198;-72
2021/12/09 01:53:43;;;;;;;76.47;25.75;;;4.90;85.20;;;;;;5025539;28;20209;-71
2021/12/09 01:56:14;;;;;;;78.38;25.75;;;4.90;85.30;;;;;;5023464;28;20201;-72
2021/12/09 01:58:42;;;;;;;47.50;22.45;;;4.90;85.30;;;;;;5024340;28;20223;-71
2021/12/09 02:01:10;;;;;;;48.90;20.50;;;4.90;85.20;;;;;;5015723;28;20264;-70
2021/12/09 02:03:40;;;;;;;60.65;22.98;;;4.90;85.30;;;;;;5028478;28;20236;-71
2021/12/09 02:06:08;;;;;;;49.33;21.50;;;4.90;85.30;;;;;;5039684;28;20245;-73
2021/12/09 02:08:36;;;;;;;51.70;22.05;;;5.00;85.30;;;;;;5023448;28;20212;-71
2021/12/09 02:11:05;;;;;;;51.05;20.92;;;4.90;85.30;;;;;;5027626;28;20197;-69
2021/12/09 02:13:33;;;;;;;45.63;20.08;;;4.90;85.30;;;;;;5034037;28;20207;-69
2021/12/09 02:16:02;;;;;;;43.00;19.60;;;5.00;85.30;;;;;;5031173;28;20240;-71
2021/12/09 02:18:31;;;;;;;39.60;18.65;;;5.00;85.30;;;;;;5027973;28;20233;-72
2021/12/09 02:21:12;;;;;;;39.92;17.92;;;5.00;85.20;;;;;;5041430;28;20215;-71
2021/12/09 02:23:43;;;;;;;41.28;19.45;;;5.00;85.30;;;;;;5030958;28;20233;-72
2021/12/09 02:26:11;;;;;;;40.50;17.35;;;5.00;85.30;;;;;;5024470;28;20201;-73
2021/12/09 02:28:40;;;;;;;40.28;18.63;;;5.00;85.30;;;;;;5023761;28;20232;-71
2021/12/09 02:31:09;;;;;;;51.00;20.73;;;5.00;85.30;;;;;;5021126;28;20636;-73
2021/12/09 02:33:37;;;;;;;44.55;19.00;;;5.00;85.30;;;;;;5031115;28;20220;-72
2021/12/09 02:36:06;;;;;;;43.22;18.98;;;5.00;85.20;;;;;;5035224;28;20207;-71
2021/12/09 02:38:42;;;;;;;42.95;20.17;;;5.00;85.20;;;;;;5029270;28;20225;-72
2021/12/09 02:41:14;;;;;;;44.45;20.10;;;5.00;85.20;;;;;;5030066;28;20224;-71
2021/12/09 02:43:45;;;;;;;45.33;19.67;;;5.00;85.30;;;;;;5052440;28;20240;-69
2021/12/09 02:46:13;;;;;;;37.83;18.00;;;5.00;85.30;;;;;;5036487;28;20247;-70
2021/12/09 02:48:41;;;;;;;33.83;16.77;;;5.00;85.20;;;;;;5037588;28;20323;-72
2021/12/09 02:51:10;;;;;;;40.95;16.92;;;5.00;85.20;;;;;;5034705;28;20222;-72
2021/12/09 02:53:39;;;;;;;32.92;17.00;;;5.00;85.20;;;;;;5031753;28;20216;-72
2021/12/09 02:56:08;;;;;;;28.23;15.77;;;5.00;85.20;;;;;;5022482;28;20240;-71
2021/12/09 02:58:36;;;;;;;33.47;17.10;;;4.90;85.30;;;;;;5021811;28;20225;-72
2021/12/09 03:01:08;;;;;;;34.08;16.33;;;5.00;85.30;;;;;;5023681;28;20232;-72
2021/12/09 03:03:36;;;;;;;30.10;15.95;;;5.00;85.30;;;;;;5029250;28;21170;-72
2021/12/09 03:06:04;;;;;;;30.52;16.60;;;5.00;85.30;;;;;;5029128;28;20208;-72
2021/12/09 03:08:37;;;;;;;38.47;19.02;;;5.00;85.30;;;;;;5026565;28;20229;-72
2021/12/09 03:11:10;;;;;;;36.90;18.65;;;5.00;85.20;;;;;;5025832;28;20201;-72
2021/12/09 03:13:39;;;;;;;48.25;22.70;;;5.00;85.20;;;;;;5024003;28;20193;-72
2021/12/09 03:16:08;;;;;;;36.30;17.95;;;5.00;85.20;;;;;;5021310;28;20276;-71
2021/12/09 03:18:40;;;;;;;39.67;20.13;;;5.00;85.20;;;;;;5025921;28;20227;-72
2021/12/09 03:21:15;;;;;;;33.83;16.83;;;5.00;85.30;;;;;;5027933;28;20210;-72
2021/12/09 03:23:44;;;;;;;34.17;17.60;;;5.00;85.30;;;;;;5024429;28;20201;-70
2021/12/09 03:26:14;;;;;;;31.15;15.82;;;5.00;85.30;;;;;;5024253;28;20193;-73
2021/12/09 03:28:42;;;;;;;33.00;16.20;;;5.00;85.30;;;;;;5036943;28;20670;-72
2021/12/09 03:31:10;;;;;;;35.35;17.33;;;5.00;85.20;;;;;;5025747;28;20232;-71
2021/12/09 03:33:38;;;;;;;34.10;16.25;;;5.00;85.20;;;;;;5025141;28;20899;-71
2021/12/09 03:36:08;;;;;;;34.75;17.20;;;5.00;85.30;;;;;;5028988;28;20215;-70
2021/12/09 03:38:36;;;;;;;34.95;17.08;;;5.00;85.30;;;;;;5025343;28;20309;-71
2021/12/09 03:41:05;;;;;;;33.17;16.40;;;5.00;85.20;;;;;;5028963;28;20788;-73
2021/12/09 03:43:35;;;;;;;35.53;16.60;;;5.00;85.10;;;;;;5019512;28;20221;-71
2021/12/09 03:46:05;;;;;;;30.25;17.35;;;5.00;85.10;;;;;;5024010;28;20240;-71
2021/12/09 03:48:33;;;;;;;33.75;16.75;;;5.00;85.10;;;;;;5026121;28;20229;-72
2021/12/09 03:51:02;;;;;;;31.42;17.20;;;5.10;85.20;;;;;;5023810;28;20259;-72
2021/12/09 03:53:30;;;;;;;30.83;16.83;;;5.00;85.10;;;;;;5020365;28;20247;-72
2021/12/09 03:55:58;;;;;;;29.63;16.02;;;5.10;85.10;;;;;;5022295;28;20201;-73
2021/12/09 03:58:27;;;;;;;33.50;17.27;;;5.10;85.10;;;;;;5023248;28;20221;-71
2021/12/09 04:00:56;;;;;;;34.60;16.77;;;5.10;85.10;;;;;;5027574;28;20225;-69
2021/12/09 04:03:25;;;;;;;34.15;17.83;;;5.10;85.10;;;;;;5027023;28;20549;-72
2021/12/09 04:05:53;;;;;;;33.20;16.42;;;5.10;85.10;;;;;;5029178;28;20217;-72
2021/12/09 04:08:21;;;;;;;34.58;16.98;;;5.10;85.20;;;;;;5026140;28;20228;-73
2021/12/09 04:10:50;;;;;;;28.08;16.02;;;5.10;85.20;;;;;;5021255;28;20206;-71
2021/12/09 04:13:18;;;;;;;35.35;17.95;;;5.10;85.20;;;;;;5023144;28;20193;-72
2021/12/09 04:15:47;;;;;;;32.95;16.88;;;5.10;85.20;;;;;;5023474;28;20640;-72
2021/12/09 04:18:16;;;;;;;38.60;19.35;;;5.10;85.20;;;;;;5023621;28;20233;-72
2021/12/09 04:20:45;;;;;;;31.45;17.95;;;5.10;85.20;;;;;;5023596;28;20264;-72
2021/12/09 04:23:13;;;;;;;31.80;17.23;;;5.10;85.10;;;;;;5021963;28;20213;-73
2021/12/09 04:25:41;;;;;;;28.70;17.25;;;5.10;85.10;;;;;;5022984;28;20252;-73
2021/12/09 04:28:09;;;;;;;32.70;17.05;;;5.10;85.10;;;;;;5027263;28;20270;-72
2021/12/09 04:30:37;;;;;;;36.70;18.25;;;5.10;85.10;;;;;;5021304;28;20236;-72
2021/12/09 04:33:05;;;;;;;37.28;19.65;;;5.10;85.00;;;;;;5022854;28;20229;-73
2021/12/09 04:35:35;;;;;;;43.15;20.40;;;5.10;85.00;;;;;;5021826;28;20201;-69
2021/12/09 04:38:03;;;;;;;44.25;21.48;;;5.10;85.00;;;;;;5024636;28;20233;-71
2021/12/09 04:40:31;;;;;;;39.88;20.05;;;5.10;85.10;;;;;;5020577;28;20620;-72
2021/12/09 04:43:00;;;;;;;41.55;21.20;;;5.10;85.20;;;;;;5024793;28;20193;-72
2021/12/09 04:45:28;;;;;;;49.75;21.33;;;5.10;85.20;;;;;;5027472;28;20232;-72
2021/12/09 04:47:56;;;;;;;45.80;20.73;;;5.10;85.20;;;;;;5028910;28;20233;-73
2021/12/09 04:50:25;;;;;;;45.45;21.25;;;5.10;85.30;;;;;;5027286;28;20197;-72
2021/12/09 04:52:54;;;;;;;38.90;20.02;;;5.10;85.30;;;;;;5028578;28;20211;-70
2021/12/09 04:55:23;;;;;;;45.28;21.33;;;5.10;85.20;;;;;;5028790;28;20293;-73
2021/12/09 04:57:51;;;;;;;48.90;22.30;;;5.10;85.20;;;;;;5025986;28;20232;-71
2021/12/09 05:00:21;;;;;;;35.38;20.35;;;5.10;85.30;;;;;;5028133;28;20219;-71
2021/12/09 05:03:02;;;;;;;43.38;22.75;;;5.10;85.30;;;;;;5041651;28;20217;-70
2021/12/09 05:05:34;;;;;;;38.63;19.13;;;5.10;85.30;;;;;;5023187;28;20764;-72
2021/12/09 05:08:05;;;;;;;43.42;21.42;;;5.10;85.30;;;;;;5025467;28;20221;-72
2021/12/09 05:10:37;;;;;;;39.92;20.30;;;5.10;85.40;;;;;;5018578;28;20212;-70
2021/12/09 05:13:05;;;;;;;34.17;19.75;;;5.10;85.50;;;;;;5022756;28;20205;-73
2021/12/09 05:15:33;;;;;;;39.30;18.98;;;5.10;85.50;;;;;;5022573;28;20240;-73
2021/12/09 05:18:01;;;;;;;34.33;18.15;;;5.10;85.50;;;;;;5026500;28;20235;-72
2021/12/09 05:20:29;;;;;;;34.13;17.58;;;5.10;85.70;;;;;;5028716;28;20597;-73
2021/12/09 05:22:57;;;;;;;34.38;18.02;;;5.20;85.70;;;;;;5020119;28;20201;-72
2021/12/09 05:25:27;;;;;;;39.90;19.88;;;5.20;85.70;;;;;;5025651;28;20208;-72
2021/12/09 05:27:55;;;;;;;36.40;20.88;;;5.20;85.70;;;;;;5025473;28;20714;-71
2021/12/09 05:30:24;;;;;;;42.15;19.67;;;5.20;85.50;;;;;;5034613;28;20209;-69
2021/12/09 05:32:52;;;;;;;40.00;19.02;;;5.20;85.30;;;;;;5036186;28;20233;-68
2021/12/09 05:35:20;;;;;;;35.75;20.58;;;5.20;85.30;;;;;;5034116;28;20239;-72
2021/12/09 05:37:48;;;;;;;31.70;17.73;;;5.20;85.30;;;;;;5031028;28;20232;-72
2021/12/09 05:40:16;;;;;;;34.58;19.42;;;5.10;85.40;;;;;;5027154;28;20201;-70
2021/12/09 05:42:46;;;;;;;38.63;17.67;;;5.10;85.40;;;;;;5027452;28;20256;-72
2021/12/09 05:45:14;;;;;;;29.70;17.13;;;5.10;85.50;;;;;;5026653;28;20212;-72
2021/12/09 05:47:42;;;;;;;37.72;19.02;;;5.10;85.50;;;;;;5032350;28;20224;-73
2021/12/09 05:50:12;;;;;;;39.35;18.60;;;5.10;85.50;;;;;;5020395;28;20225;-73
2021/12/09 05:52:40;;;;;;;36.83;18.40;;;5.10;85.50;;;;;;5038395;28;20221;-73
2021/12/09 05:55:12;;;;;;;31.27;17.88;;;5.10;85.50;;;;;;5041642;28;20204;-70
2021/12/09 05:57:40;;;;;;;36.25;20.20;;;5.10;85.70;;;;;;5024349;28;20217;-72
2021/12/09 06:00:10;;;;;;;31.55;19.58;;;5.10;85.70;;;;;;5025930;28;20694;-71
2021/12/09 06:02:41;;;;;;;33.47;19.23;;;5.10;85.80;;;;;;5021204;28;20217;-73
2021/12/09 06:05:10;;;;;;;29.65;17.85;;;5.20;85.80;;;;;;5030049;28;20228;-72
2021/12/09 06:07:38;;;;;;;38.50;18.00;;;5.20;85.80;;;;;;5027402;28;20226;-69
2021/12/09 06:10:07;;;;;;;40.15;19.30;;;5.20;85.70;;;;;;5027874;28;20213;-70
2021/12/09 06:12:36;;;;;;;31.77;18.05;;;5.20;85.70;;;;;;5028681;28;20208;-72
2021/12/09 06:15:05;;;;;;;31.40;17.65;;;5.20;85.50;;;;;;5033040;28;20194;-71
2021/12/09 06:17:36;;;;;;;32.33;17.67;;;5.20;85.50;;;;;;5011181;28;20610;-68
2021/12/09 06:20:05;;;;;;;35.65;18.48;;;5.20;85.70;;;;;;5006063;28;20809;-70
2021/12/09 06:22:33;;;;;;;32.97;18.67;;;5.20;85.70;;;;;;5007665;28;20208;-73
2021/12/09 06:25:01;;;;;;;32.50;17.90;;;5.20;85.70;;;;;;5008503;28;20252;-71
2021/12/09 06:27:29;;;;;;;35.60;18.77;;;5.20;85.50;;;;;;5005124;28;20976;-72
2021/12/09 06:29:58;;;;;;;36.83;17.85;;;5.10;85.40;;;;;;5007543;28;20206;-73
2021/12/09 06:32:27;;;;;;;36.58;18.33;;;5.10;85.50;;;;;;5012188;28;20229;-72
2021/12/09 06:34:56;;;;;;;31.80;18.13;;;5.10;85.40;;;;;;5012599;28;20201;-71
2021/12/09 06:37:24;;;;;;;33.10;17.85;;;5.10;85.50;;;;;;5005727;28;20233;-72
2021/12/09 06:39:52;;;;;;;37.17;18.15;;;5.10;85.50;;;;;;5011114;28;20217;-69
2021/12/09 06:42:20;;;;;;;35.92;18.27;;;5.10;85.50;;;;;;5012955;28;20209;-72
2021/12/09 06:44:48;;;;;;;38.15;19.73;;;5.10;85.70;;;;;;5006694;28;20210;-72
2021/12/09 06:47:16;;;;;;;34.17;17.35;;;5.10;85.70;;;;;;5024150;28;20252;-71
2021/12/09 06:49:44;;;;;;;30.55;17.38;;;5.10;85.50;;;;;;5021715;28;20203;-71
2021/12/09 06:52:14;;;;;;;31.35;17.52;;;5.10;85.50;;;;;;5026806;28;20220;-72
2021/12/09 06:54:42;;;;;;;34.45;16.95;;;5.10;85.70;;;;;;5027657;28;20193;-72
2021/12/09 06:57:10;;;;;;;25.17;15.18;;;5.10;85.50;;;;;;5024330;28;20233;-71
2021/12/09 06:59:38;;;;;;;33.33;18.35;;;5.10;85.50;;;;;;5025712;28;20201;-72
2021/12/09 07:02:06;;;;;;;32.92;17.15;;;5.10;85.50;;;;;;5025034;28;20230;-70
2021/12/09 07:04:34;;;;;;;27.88;15.30;;;5.10;85.70;;;;;;5027822;28;20263;-70
2021/12/09 07:07:02;;;;;;;33.58;17.40;;;5.10;85.70;;;;;;5028532;28;20233;-68
2021/12/09 07:09:32;;;;;;;31.83;16.65;;;5.10;85.80;;;;;;5030279;28;20316;-68
2021/12/09 07:12:00;;;;;;;31.38;16.38;;;5.10;85.80;;;;;;5025120;28;20223;-72
2021/12/09 07:14:28;;;;;;;35.45;17.80;;;5.10;85.70;;;;;;5024154;28;20197;-71
2021/12/09 07:17:00;;;;;;;30.38;16.73;;;5.10;85.70;;;;;;5024985;28;20229;-73
2021/12/09 07:19:28;;;;;;;32.55;16.85;;;5.20;85.70;;;;;;5026385;28;20264;-72
2021/12/09 07:21:56;;;;;;;32.88;18.10;;;5.20;85.70;;;;;;5024214;28;20232;-71
2021/12/09 07:24:24;;;;;;;36.40;17.80;;;5.20;85.50;;;;;;5024143;28;20211;-74
2021/12/09 07:26:53;;;;;;;30.60;18.35;;;5.20;85.50;;;;;;5023828;28;20243;-72
2021/12/09 07:29:21;;;;;;;31.73;16.45;;;5.20;85.50;;;;;;5023416;28;20201;-72
2021/12/09 07:31:49;;;;;;;31.42;18.23;;;5.20;85.40;;;;;;5023713;28;20239;-71
2021/12/09 07:34:18;;;;;;;38.45;18.80;;;5.20;85.40;;;;;;5038561;28;20332;-72
2021/12/09 07:36:45;;;;;;;37.60;21.00;;;5.20;85.40;;;;;;5026620;28;20219;-71
2021/12/09 07:39:14;;;;;;;34.60;18.23;;;5.20;85.30;;;;;;5021499;28;20280;-70
2021/12/09 07:41:42;;;;;;;37.13;20.10;;;5.10;85.40;;;;;;5020215;28;20205;-70
2021/12/09 07:44:13;;;;;;;37.90;19.08;;;5.20;85.40;;;;;;5017639;28;20287;-72
2021/12/09 07:46:43;;;;;;;40.05;19.30;;;5.20;85.40;;;;;;5021279;28;20240;-71
2021/12/09 07:49:11;;;;;;;37.30;18.23;;;5.20;85.30;;;;;;5024803;28;20201;-72
2021/12/09 07:51:44;;;;;;;34.35;18.88;;;5.20;85.30;;;;;;5015424;28;20222;-72
2021/12/09 07:54:13;;;;;;;28.75;15.70;;;5.20;85.30;;;;;;5020134;28;20224;-71
2021/12/09 07:56:41;;;;;;;21.25;12.40;;;5.20;85.30;;;;;;5019163;28;20229;-69
2021/12/09 07:59:11;;;;;;;18.92;12.40;;;5.20;85.30;;;;;;5020141;28;20225;-69
2021/12/09 08:01:41;;;;;;;18.10;9.70;;;5.20;85.30;;;;;;5021039;28;20229;-71
2021/12/09 08:04:10;;;;;;;19.90;11.73;;;5.10;85.20;;;;;;5020433;28;20225;-72
2021/12/09 08:06:39;;;;;;;24.92;12.10;;;5.10;85.30;;;;;;5021204;28;20216;-68
2021/12/09 08:09:08;;;;;;;25.73;13.27;;;5.10;85.30;;;;;;5021403;28;20205;-71
2021/12/09 08:11:37;;;;;;;25.38;13.43;;;5.10;85.40;;;;;;5017261;28;20209;-71
2021/12/09 08:14:06;;;;;;;18.10;10.20;;;5.20;85.40;;;;;;5022235;28;20214;-71
2021/12/09 08:16:37;;;;;;;18.67;9.35;;;5.10;85.30;;;;;;5020120;28;20241;-71
2021/12/09 08:19:07;;;;;;;21.42;11.60;;;5.10;85.20;;;;;;5017220;28;20205;-73
2021/12/09 08:21:36;;;;;;;16.45;9.82;;;5.10;85.20;;;;;;5012895;28;20267;-69
2021/12/09 08:24:05;;;;;;;21.48;10.32;;;5.10;85.30;;;;;;4998535;28;20241;-68
2021/12/09 08:26:35;;;;;;;18.85;10.60;;;5.10;85.30;;;;;;4996048;28;20226;-68
2021/12/09 08:29:05;;;;;;;24.52;11.20;;;5.10;85.30;;;;;;5019952;28;20213;-69
2021/12/09 08:31:35;;;;;;;15.13;9.63;;;5.10;85.40;;;;;;5007786;28;20233;-72
2021/12/09 08:34:17;;;;;;;17.27;9.20;;;5.20;85.50;;;;;;5011237;28;21175;-71
2021/12/09 08:36:51;;;;;;;15.40;8.20;;;5.20;85.40;;;;;;5010778;28;20224;-72
2021/12/09 08:39:21;;;;;;;14.95;8.45;;;5.20;85.50;;;;;;5009626;28;20213;-69
2021/12/09 08:41:49;;;;;;;21.40;8.52;;;5.20;85.40;;;;;;5013886;28;20737;-71
2021/12/09 08:44:17;;;;;;;12.45;6.63;;;5.20;85.40;;;;;;5010973;28;20678;-72
2021/12/09 08:46:45;;;;;;;12.20;7.43;;;5.20;85.30;;;;;;5031149;28;20370;-70
2021/12/09 08:49:13;;;;;;;21.38;8.00;;;5.20;85.30;;;;;;5024076;28;20209;-71
2021/12/09 08:51:42;;;;;;;13.23;6.60;;;5.20;85.30;;;;;;5019411;28;20216;-71
2021/12/09 08:54:11;;;;;;;11.88;5.80;;;5.20;85.30;;;;;;5015768;28;20325;-69
2021/12/09 08:56:39;;;;;;;18.73;6.63;;;5.20;85.40;;;;;;5016522;28;20247;-72
2021/12/09 08:59:07;;;;;;;12.30;6.82;;;5.20;85.40;;;;;;5012463;28;20260;-72
2021/12/09 09:01:55;;;;;;;14.13;6.43;;;5.30;85.30;;;;;;5012937;28;20295;-69
2021/12/09 09:04:23;;;;;;;21.23;7.00;;;5.30;85.40;;;;;;5011218;28;20263;-72
2021/12/09 09:06:53;;;;;;;13.63;6.93;;;5.30;85.40;;;;;;5012646;28;20226;-69
2021/12/09 09:09:24;;;;;;;12.15;6.63;;;5.30;85.40;;;;;;5013594;28;20208;-69
2021/12/09 09:11:53;;;;;;;16.33;6.28;;;5.30;85.40;;;;;;5012260;28;20210;-71
2021/12/09 09:14:21;;;;;;;12.70;6.22;;;5.30;85.40;;;;;;5012728;28;20212;-72
2021/12/09 09:16:50;;;;;;;13.10;7.60;;;5.30;85.40;;;;;;5013916;28;20779;-69
2021/12/09 09:19:18;;;;;;;12.60;7.00;;;5.30;85.50;;;;;;5018990;28;20228;-69
2021/12/09 09:21:47;;;;;;;14.60;6.82;;;5.40;85.50;;;;;;5010356;28;20212;-72
2021/12/09 09:24:16;;;;;;;15.00;8.10;;;5.40;85.50;;;;;;5013718;28;20268;-72
2021/12/09 09:26:44;;;;;;;14.77;8.75;;;5.40;85.50;;;;;;5014421;28;20229;-69
2021/12/09 09:29:12;;;;;;;12.55;6.97;;;5.50;85.50;;;;;;5031213;28;20275;-72
2021/12/09 09:31:42;;;;;;;17.08;8.38;;;5.50;85.50;;;;;;5016114;28;20259;-72
2021/12/09 09:34:11;;;;;;;18.95;8.57;;;5.50;85.50;;;;;;5016072;28;20260;-71
2021/12/09 09:36:44;;;;;;;12.05;7.57;;;5.60;85.40;;;;;;5015656;28;20220;-71
2021/12/09 09:39:22;;;;;;;16.80;8.15;;;5.60;85.40;;;;;;5018091;28;20213;-71
2021/12/09 09:41:59;;;;;;;16.20;9.18;;;5.60;85.40;;;;;;5014208;28;20221;-71
2021/12/09 09:44:34;;;;;;;18.92;8.25;;;5.60;85.30;;;;;;5016643;28;20204;-71
2021/12/09 09:47:04;;;;;;;21.13;9.73;;;5.60;85.20;;;;;;5015573;28;20248;-71
2021/12/09 09:49:34;;;;;;;14.88;9.18;;;5.60;85.30;;;;;;5016023;28;20213;-71
2021/12/09 09:52:02;;;;;;;17.38;9.48;;;5.60;85.30;;;;;;5015429;28;20687;-71
2021/12/09 09:54:30;;;;;;;15.70;8.90;;;5.60;85.40;;;;;;5007766;28;20236;-71
2021/12/09 09:57:00;;;;;;;14.50;8.20;;;5.60;85.40;;;;;;5014970;28;20601;-72
2021/12/09 09:59:28;;;;;;;17.33;8.65;;;5.70;85.30;;;;;;5016505;28;21162;-71
2021/12/09 10:01:56;;;;;;;18.27;9.95;;;5.70;85.20;;;;;;5015544;28;20233;-71
2021/12/09 10:04:33;;;;;;;21.52;8.40;;;5.70;85.20;;;;;;5015963;28;20223;-72
2021/12/09 10:07:01;;;;;;;15.68;8.93;;;5.70;85.20;;;;;;5021604;28;20220;-71
2021/12/09 10:09:29;;;;;;;15.43;9.43;;;5.70;85.20;;;;;;5018124;28;20219;-71
2021/12/09 10:11:59;;;;;;;19.10;10.05;;;5.70;85.20;;;;;;5019386;28;20787;-71
2021/12/09 10:14:29;;;;;;;18.15;9.80;;;5.70;85.20;;;;;;5020493;28;20197;-74
2021/12/09 10:17:04;;;;;;;17.33;9.60;;;5.70;85.20;;;;;;5018711;28;20231;-72
2021/12/09 10:19:33;;;;;;;20.15;10.07;;;5.80;85.10;;;;;;5019808;28;20239;-72
2021/12/09 10:22:11;;;;;;;18.10;9.65;;;5.80;85.00;;;;;;5013699;28;20210;-72
2021/12/09 10:24:41;;;;;;;17.55;9.43;;;5.80;85.10;;;;;;5015756;28;20602;-72
2021/12/09 10:27:23;;;;;;;18.70;8.95;;;5.80;85.20;;;;;;5018781;28;20279;-72
2021/12/09 10:29:56;;;;;;;22.90;11.40;;;5.80;85.10;;;;;;5013699;28;20220;-72
2021/12/09 10:32:30;;;;;;;23.30;9.68;;;5.80;85.10;;;;;;5016822;28;20228;-71
2021/12/09 10:35:04;;;;;;;17.67;10.40;;;5.80;85.10;;;;;;5017999;28;20205;-70
2021/12/09 10:37:34;;;;;;;16.80;10.10;;;5.90;85.00;;;;;;5013759;28;20726;-70
2021/12/09 10:40:05;;;;;;;17.38;10.05;;;5.90;85.00;;;;;;5017054;28;20251;-71
2021/12/09 10:42:35;;;;;;;24.25;10.55;;;5.90;84.90;;;;;;5015962;28;20214;-71
2021/12/09 10:45:06;;;;;;;14.75;10.07;;;5.90;84.90;;;;;;5019718;28;20201;-71
2021/12/09 10:47:49;;;;;;;22.13;10.82;;;5.90;85.00;;;;;;4994309;28;20234;-70
2021/12/09 10:50:28;;;;;;;20.23;10.07;;;5.90;85.00;;;;;;4999728;28;20209;-70
2021/12/09 10:53:03;;;;;;;21.83;11.05;;;5.90;84.80;;;;;;4993378;28;20209;-72
2021/12/09 10:55:34;;;;;;;16.75;9.75;;;5.90;84.80;;;;;;4994978;28;20214;-71
2021/12/09 10:58:08;;;;;;;22.33;11.18;;;5.90;84.80;;;;;;4994963;28;20221;-70
2021/12/09 11:00:40;;;;;;;21.60;10.45;;;5.90;84.80;;;;;;4998149;28;20248;-71
2021/12/09 11:03:12;;;;;;;18.40;9.55;;;5.90;84.90;;;;;;5016458;28;20671;-71
2021/12/09 11:05:43;;;;;;;18.75;10.00;;;5.90;84.90;;;;;;5014918;28;20565;-71
2021/12/09 11:08:17;;;;;;;17.85;10.48;;;5.90;84.80;;;;;;5015530;28;20240;-71
2021/12/09 11:10:48;;;;;;;21.40;10.38;;;5.90;84.80;;;;;;5008572;28;20305;-71
2021/12/09 11:13:21;;;;;;;17.20;9.88;;;5.90;84.80;;;;;;5012374;28;20225;-71
2021/12/09 11:15:59;;;;;;;18.10;10.05;;;5.90;84.80;;;;;;5016122;28;20236;-71
2021/12/09 11:18:36;;;;;;;16.42;8.95;;;5.90;84.80;;;;;;5016117;28;20225;-71
2021/12/09 11:21:08;;;;;;;19.05;10.35;;;5.90;84.80;;;;;;5022383;28;20690;-71
2021/12/09 11:23:44;;;;;;;15.88;9.75;;;5.90;84.80;;;;;;5014155;28;20213;-71
2021/12/09 11:26:32;;;;;;;21.15;10.05;;;6.00;84.90;;;;;;5016801;28;20223;-71
2021/12/09 11:29:06;;;;;;;19.38;10.57;;;6.00;84.90;;;;;;5017844;28;20955;-71
2021/12/09 11:31:40;;;;;;;17.85;9.77;;;6.00;84.60;;;;;;5011888;28;20230;-71
2021/12/09 11:34:13;;;;;;;16.10;9.68;;;6.00;84.60;;;;;;5015976;28;20224;-72
2021/12/09 11:36:56;;;;;;;14.85;9.05;;;6.00;84.50;;;;;;5010710;28;20210;-72
2021/12/09 11:39:31;;;;;;;16.10;9.13;;;6.00;84.50;;;;;;5017868;28;20697;-72
2021/12/09 11:42:11;;;;;;;20.35;9.90;;;5.90;84.50;;;;;;5013511;28;20293;-71
2021/12/09 11:45:01;;;;;;;17.27;9.52;;;6.00;84.60;;;;;;5015152;28;21050;-71
2021/12/09 11:47:29;;;;;;;19.20;10.90;;;6.00;84.60;;;;;;5012695;28;20233;-74
2021/12/09 11:50:10;;;;;;;15.48;10.45;;;6.00;84.60;;;;;;5016313;28;20213;-72
2021/12/09 11:52:39;;;;;;;17.08;9.65;;;6.00;84.60;;;;;;5013156;28;20220;-70
2021/12/09 11:55:09;;;;;;;16.40;9.85;;;6.00;84.60;;;;;;5016962;28;20205;-71
2021/12/09 11:57:40;;;;;;;15.05;9.35;;;6.00;84.60;;;;;;5008382;28;20592;-71
2021/12/09 12:07:03;;;;;;;17.70;9.65;;;6.00;84.60;;;;;;5015144;28;20260;-71
2021/12/09 12:12:49;;;;;;;28.85;12.23;;;6.00;84.60;;;;;;4969417;28;20276;-70
2021/12/09 12:15:53;;;;;;;22.20;14.43;;;6.00;84.60;;;;;;5009440;28;20217;-71
2021/12/09 12:21:46;;;;;;;27.25;14.55;;;6.00;84.40;;;;;;5015508;28;20212;-71
2021/12/09 12:27:52;;;;;;;30.10;14.02;;;5.80;84.30;;;;;;5017525;28;20592;-70
2021/12/09 12:30:39;;;;;;;30.70;15.77;;;5.80;84.40;;;;;;5015305;28;20205;-71
2021/12/09 12:33:19;;;;;;;26.58;13.95;;;5.80;84.40;;;;;;5015484;28;20857;-71
2021/12/09 12:36:01;;;;;;;30.13;13.00;;;5.80;84.50;;;;;;5015882;28;20212;-70
2021/12/09 12:38:47;;;;;;;24.08;13.40;;;5.80;84.50;;;;;;5026555;28;20278;-71
2021/12/09 12:41:17;;;;;;;26.38;14.05;;;5.80;84.40;;;;;;5020814;28;20608;-71
2021/12/09 12:43:54;;;;;;;23.33;12.10;;;5.80;84.40;;;;;;5017749;28;20220;-71
2021/12/09 12:46:47;;;;;;;25.02;11.25;;;5.80;84.40;;;;;;5016710;28;20271;-71
2021/12/09 12:49:30;;;;;;;24.08;12.50;;;5.80;84.40;;;;;;5017747;28;20284;-69
2021/12/09 12:52:05;;;;;;;24.92;12.70;;;5.80;84.30;;;;;;5018086;28;21175;-70
2021/12/09 12:54:46;;;;;;;23.38;11.05;;;5.80;84.30;;;;;;5017179;28;20258;-69
2021/12/09 12:57:33;;;;;;;24.40;10.23;;;5.80;84.30;;;;;;5020445;28;20890;-70
2021/12/09 13:00:19;;;;;;;18.70;9.52;;;5.80;84.40;;;;;;5039332;28;20217;-71
2021/12/09 13:03:13;;;;;;;24.02;10.48;;;5.80;84.30;;;;;;5024045;28;20236;-71
2021/12/09 13:06:05;;;;;;;17.17;9.73;;;5.80;84.50;;;;;;5019467;28;20212;-72
2021/12/09 13:08:55;;;;;;;19.60;10.52;;;5.80;84.50;;;;;;5013482;28;20229;-69
2021/12/09 13:11:45;;;;;;;22.17;12.05;;;5.80;84.40;;;;;;5029707;28;20225;-72
2021/12/09 13:14:20;;;;;;;23.05;9.95;;;5.80;84.30;;;;;;5021329;28;20205;-71